Time;durP1;ratioP1;P1;durP2;ratioP2;P2;SDS_P1;SDS_P2;PMS_P1;PMS_P2;Temp;Humidity;BMP_temperature;BMP_pressure;BME280_temperature;BME280_humidity;BME280_pressure;Samples;Min_cycle;Max_cycle;Signal;HPM_P1;HPM_P2
2022/05/19 00:02:20;;;;;;;2.45;1.73;;;;;;;;;;5066817;28;20538;-80
2022/05/19 00:04:47;;;;;;;2.63;1.95;;;;;;;;;;5066288;28;20046;-80
2022/05/19 00:07:15;;;;;;;2.65;2.00;;;;;;;;;;5066326;28;20059;-79
2022/05/19 00:09:43;;;;;;;2.28;2.08;;;;;;;;;;5067294;28;20055;-80
2022/05/19 00:12:13;;;;;;;3.22;1.80;;;;;;;;;;5064801;28;20037;-80
2022/05/19 00:14:41;;;;;;;3.47;2.00;;;;;;;;;;5059096;28;20044;-80
2022/05/19 00:17:08;;;;;;;2.85;1.90;;;;;;;;;;5063574;28;20399;-80
2022/05/19 00:19:36;;;;;;;3.17;1.88;;;;;;;;;;5067169;28;20064;-80
2022/05/19 00:22:03;;;;;;;3.13;1.83;;;;;;;;;;5067063;28;20191;-80
2022/05/19 00:24:31;;;;;;;4.13;1.90;;;;;;;;;;5050142;28;20056;-80
2022/05/19 00:26:58;;;;;;;5.50;2.08;;;;;;;;;;5045868;28;20297;-79
2022/05/19 00:29:27;;;;;;;2.78;2.40;;;;;;;;;;5054352;28;20454;-79
2022/05/19 00:31:55;;;;;;;2.55;2.00;;;;;;;;;;5063847;28;20047;-79
2022/05/19 00:34:23;;;;;;;3.35;1.92;;;;;;;;;;5046622;28;20049;-79
2022/05/19 00:37:01;;;;;;;3.75;2.10;;;;;;;;;;5055270;28;20063;-80
2022/05/19 00:39:29;;;;;;;2.00;1.90;;;;;;;;;;5062182;28;20589;-79
2022/05/19 00:44:43;;;;;;;2.10;2.00;;;;;;;;;;5061293;28;20044;-79
2022/05/19 00:47:14;;;;;;;3.17;1.90;;;;;;;;;;5061643;28;20155;-79
2022/05/19 00:49:43;;;;;;;2.80;1.50;;;;;;;;;;5064111;28;20072;-79
2022/05/19 00:52:13;;;;;;;1.60;1.60;;;;;;;;;;5068995;28;20050;-79
2022/05/19 00:54:43;;;;;;;1.98;1.80;;;;;;;;;;5067449;28;20044;-79
2022/05/19 00:57:40;;;;;;;3.53;1.90;;;;;;;;;;5067265;28;20040;-79
2022/05/19 01:00:09;;;;;;;2.45;2.17;;;;;;;;;;5044592;28;20059;-79
2022/05/19 01:02:38;;;;;;;2.10;2.00;;;;;;;;;;5061973;28;20040;-79
2022/05/19 01:05:09;;;;;;;2.40;2.15;;;;;;;;;;5068802;28;20052;-79
2022/05/19 01:07:48;;;;;;;2.95;2.13;;;;;;;;;;5068819;28;20136;-79
2022/05/19 01:10:21;;;;;;;3.35;2.15;;;;;;;;;;5066575;28;20143;-79
2022/05/19 01:12:49;;;;;;;2.13;2.03;;;;;;;;;;5064852;28;20102;-79
2022/05/19 01:15:17;;;;;;;2.10;2.00;;;;;;;;;;5056992;28;20315;-79
2022/05/19 01:17:45;;;;;;;3.70;2.15;;;;;;;;;;5067721;28;20063;-79
2022/05/19 01:20:22;;;;;;;2.25;2.05;;;;;;;;;;5057406;28;20509;-79
2022/05/19 01:22:55;;;;;;;3.63;2.25;;;;;;;;;;5067781;28;20051;-79
2022/05/19 01:25:26;;;;;;;2.10;1.90;;;;;;;;;;5068202;28;20059;-79
2022/05/19 01:27:54;;;;;;;3.78;1.90;;;;;;;;;;5064106;28;20049;-79
2022/05/19 01:30:21;;;;;;;2.60;2.00;;;;;;;;;;5065903;28;20052;-80
2022/05/19 01:32:53;;;;;;;4.70;2.25;;;;;;;;;;5051393;28;20420;-80
2022/05/19 01:35:21;;;;;;;2.20;2.10;;;;;;;;;;5069297;28;20102;-79
2022/05/19 01:37:49;;;;;;;3.70;2.00;;;;;;;;;;5068957;28;20099;-79
2022/05/19 01:40:36;;;;;;;2.00;1.90;;;;;;;;;;5068615;28;20131;-79
2022/05/19 01:43:18;;;;;;;2.15;1.95;;;;;;;;;;5070295;28;20040;-79
2022/05/19 01:45:46;;;;;;;2.55;2.13;;;;;;;;;;5067016;28;20143;-79
2022/05/19 01:48:16;;;;;;;2.38;2.10;;;;;;;;;;5067860;28;20063;-79
2022/05/19 01:50:49;;;;;;;2.28;1.98;;;;;;;;;;5058721;28;20139;-79
2022/05/19 01:53:28;;;;;;;1.98;1.88;;;;;;;;;;5058232;28;20764;-80
2022/05/19 01:56:19;;;;;;;5.38;1.80;;;;;;;;;;5067009;28;20049;-80
2022/05/19 01:58:53;;;;;;;3.05;2.10;;;;;;;;;;5044781;28;20049;-80
2022/05/19 02:01:24;;;;;;;1.90;1.80;;;;;;;;;;5062880;28;20557;-80
2022/05/19 02:03:52;;;;;;;;;;;;;;;;;;5067232;28;20109;-80
2022/05/19 02:06:28;;;;;;;2.65;2.13;;;;;;;;;;5061020;28;19946;-80
2022/05/19 02:09:00;;;;;;;2.47;2.30;;;;;;;;;;5068251;28;20045;-79
2022/05/19 02:11:32;;;;;;;1.92;1.83;;;;;;;;;;5064292;28;20090;-79
2022/05/19 02:14:00;;;;;;;;;;;;;;;;;;5066015;28;20378;-80
2022/05/19 02:16:30;;;;;;;2.10;2.00;;;;;;;;;;5082413;28;19928;-80
2022/05/19 02:18:58;;;;;;;2.58;2.00;;;;;;;;;;5067736;28;20111;-80
2022/05/19 02:21:26;;;;;;;2.00;1.67;;;;;;;;;;5066303;28;20052;-80
2022/05/19 02:23:56;;;;;;;2.17;1.95;;;;;;;;;;5067029;28;20100;-80
2022/05/19 02:26:23;;;;;;;2.20;2.00;;;;;;;;;;5064181;28;20110;-80
2022/05/19 02:28:54;;;;;;;3.25;2.30;;;;;;;;;;5066904;28;20041;-80
2022/05/19 02:31:22;;;;;;;2.60;2.40;;;;;;;;;;5067387;28;20123;-79
2022/05/19 02:33:49;;;;;;;3.17;2.42;;;;;;;;;;5068043;28;20442;-80
2022/05/19 02:36:17;;;;;;;5.28;3.65;;;;;;;;;;5064525;28;20806;-79
2022/05/19 02:38:45;;;;;;;5.93;4.43;;;;;;;;;;5068872;28;20052;-80
2022/05/19 02:41:12;;;;;;;8.43;5.00;;;;;;;;;;5067091;28;20544;-80
2022/05/19 02:43:40;;;;;;;10.75;6.65;;;;;;;;;;5060988;28;20589;-80
2022/05/19 02:46:07;;;;;;;14.85;7.05;;;;;;;;;;5064699;28;20150;-79
2022/05/19 02:48:35;;;;;;;12.50;8.38;;;;;;;;;;5069058;28;20329;-80
2022/05/19 02:51:04;;;;;;;18.77;10.60;;;;;;;;;;5069719;28;20051;-79
2022/05/19 02:53:31;;;;;;;17.40;10.48;;;;;;;;;;5051808;28;20131;-79
2022/05/19 02:55:59;;;;;;;15.75;10.30;;;;;;;;;;5066263;28;20061;-79
2022/05/19 02:58:26;;;;;;;15.40;9.63;;;;;;;;;;5066075;28;20040;-80
2022/05/19 03:00:54;;;;;;;13.10;8.82;;;;;;;;;;5067883;28;20488;-80
2022/05/19 03:03:21;;;;;;;12.95;8.38;;;;;;;;;;5067374;28;20040;-79
2022/05/19 03:05:49;;;;;;;13.82;9.45;;;;;;;;;;5050035;28;20126;-79
2022/05/19 03:08:16;;;;;;;12.45;9.02;;;;;;;;;;5068290;28;20095;-80
2022/05/19 03:10:44;;;;;;;11.80;8.60;;;;;;;;;;5068006;28;20068;-80
2022/05/19 03:13:15;;;;;;;15.70;9.85;;;;;;;;;;5070129;28;20075;-79
2022/05/19 03:15:44;;;;;;;16.30;10.40;;;;;;;;;;5070946;28;20063;-80
2022/05/19 03:18:12;;;;;;;15.77;9.10;;;;;;;;;;5069965;28;20032;-79
2022/05/19 03:20:39;;;;;;;13.93;8.95;;;;;;;;;;5068619;28;20044;-79
2022/05/19 03:23:07;;;;;;;16.52;9.00;;;;;;;;;;5060727;28;20067;-80
2022/05/19 03:25:34;;;;;;;12.30;8.50;;;;;;;;;;5066296;28;20052;-80
2022/05/19 03:28:02;;;;;;;13.52;9.10;;;;;;;;;;5073953;28;20048;-80
2022/05/19 03:30:29;;;;;;;13.93;7.50;;;;;;;;;;5082267;28;20094;-80
2022/05/19 03:32:57;;;;;;;10.52;6.88;;;;;;;;;;5049404;28;20521;-79
2022/05/19 03:35:24;;;;;;;9.57;7.18;;;;;;;;;;5075199;28;20047;-79
2022/05/19 03:37:58;;;;;;;12.82;6.63;;;;;;;;;;5065828;28;20139;-80
2022/05/19 03:40:26;;;;;;;9.80;6.35;;;;;;;;;;5065445;28;20385;-80
2022/05/19 03:42:53;;;;;;;7.95;5.85;;;;;;;;;;5065539;28;20044;-80
2022/05/19 03:45:21;;;;;;;8.80;6.22;;;;;;;;;;5066458;28;20052;-80
2022/05/19 03:47:48;;;;;;;6.57;5.38;;;;;;;;;;5065319;28;20131;-80
2022/05/19 03:50:16;;;;;;;7.65;5.10;;;;;;;;;;5066660;28;20044;-80
2022/05/19 03:52:44;;;;;;;6.63;4.80;;;;;;;;;;5052562;28;20056;-80
2022/05/19 03:55:13;;;;;;;5.85;4.57;;;;;;;;;;5067014;28;20041;-79
2022/05/19 03:57:41;;;;;;;6.63;5.38;;;;;;;;;;5063453;28;20064;-80
2022/05/19 04:00:10;;;;;;;6.18;5.28;;;;;;;;;;5065228;28;20230;-80
2022/05/19 04:02:41;;;;;;;5.80;4.95;;;;;;;;;;5067870;28;20119;-79
2022/05/19 04:05:09;;;;;;;8.65;4.80;;;;;;;;;;5066833;28;20055;-79
2022/05/19 04:07:37;;;;;;;5.15;4.43;;;;;;;;;;5067582;28;20040;-80
2022/05/19 04:10:05;;;;;;;5.78;4.20;;;;;;;;;;5066143;28;20044;-79
2022/05/19 04:12:33;;;;;;;4.70;3.95;;;;;;;;;;5060819;28;20067;-80
2022/05/19 04:15:01;;;;;;;4.38;3.97;;;;;;;;;;5073143;28;20575;-80
2022/05/19 04:17:33;;;;;;;5.82;3.67;;;;;;;;;;5049630;28;20043;-80
2022/05/19 04:20:04;;;;;;;5.57;3.70;;;;;;;;;;5052799;28;20097;-79
2022/05/19 04:22:32;;;;;;;4.45;4.00;;;;;;;;;;5045600;28;20066;-80
2022/05/19 04:25:02;;;;;;;5.20;3.63;;;;;;;;;;5049341;28;20041;-80
2022/05/19 04:27:30;;;;;;;4.75;3.47;;;;;;;;;;5056096;28;20558;-79
2022/05/19 04:29:58;;;;;;;3.47;3.17;;;;;;;;;;5064139;28;20485;-80
2022/05/19 04:32:31;;;;;;;3.65;3.35;;;;;;;;;;5044588;28;20460;-79
2022/05/19 04:35:00;;;;;;;3.65;3.35;;;;;;;;;;5043504;28;20417;-79
2022/05/19 04:37:28;;;;;;;6.95;3.60;;;;;;;;;;5053816;28;20520;-80
2022/05/19 04:39:55;;;;;;;5.47;3.25;;;;;;;;;;5029336;28;20056;-79
2022/05/19 04:42:23;;;;;;;3.10;2.90;;;;;;;;;;5043458;28;20469;-80
2022/05/19 04:44:53;;;;;;;4.07;3.05;;;;;;;;;;5071967;28;20135;-80
2022/05/19 04:47:21;;;;;;;3.63;3.33;;;;;;;;;;5048637;28;20125;-80
2022/05/19 04:49:48;;;;;;;3.10;2.90;;;;;;;;;;5042901;28;20087;-80
2022/05/19 04:52:16;;;;;;;3.22;2.92;;;;;;;;;;5046655;28;20495;-80
2022/05/19 04:54:43;;;;;;;4.60;3.30;;;;;;;;;;5057568;28;20047;-80
2022/05/19 04:57:10;;;;;;;4.03;3.15;;;;;;;;;;5055340;28;20040;-80
2022/05/19 04:59:39;;;;;;;5.13;3.22;;;;;;;;;;5033144;28;20395;-80
2022/05/19 05:02:07;;;;;;;4.32;3.28;;;;;;;;;;5035571;28;20047;-79
2022/05/19 05:04:34;;;;;;;3.65;3.35;;;;;;;;;;5057932;28;20052;-80
2022/05/19 05:07:01;;;;;;;3.45;3.15;;;;;;;;;;5062233;28;20037;-80
2022/05/19 05:09:29;;;;;;;6.30;3.63;;;;;;;;;;5045427;28;20112;-79
2022/05/19 05:12:19;;;;;;;4.65;3.50;;;;;;;;;;5050289;28;20044;-80
2022/05/19 05:14:46;;;;;;;3.40;3.20;;;;;;;;;;5050874;28;20045;-80
2022/05/19 05:17:15;;;;;;;3.40;3.20;;;;;;;;;;5032512;28;20048;-80
2022/05/19 05:19:42;;;;;;;3.50;3.28;;;;;;;;;;5057901;28;20048;-81
2022/05/19 05:22:10;;;;;;;4.63;3.08;;;;;;;;;;5055486;28;20040;-80
2022/05/19 05:24:37;;;;;;;4.13;3.53;;;;;;;;;;5053900;28;20036;-80
2022/05/19 05:27:05;;;;;;;3.47;3.17;;;;;;;;;;5048937;28;20119;-79
2022/05/19 05:29:35;;;;;;;4.35;3.95;;;;;;;;;;5060876;28;20044;-79
2022/05/19 05:32:03;;;;;;;4.30;3.50;;;;;;;;;;5041123;28;20094;-79
2022/05/19 05:34:30;;;;;;;6.40;4.25;;;;;;;;;;5060219;28;20111;-79
2022/05/19 05:36:58;;;;;;;3.55;3.25;;;;;;;;;;5060827;28;20049;-80
2022/05/19 05:39:50;;;;;;;4.57;2.65;;;;;;;;;;5060607;28;20051;-79
2022/05/19 05:42:18;;;;;;;8.02;3.42;;;;;;;;;;5060196;28;20052;-79
2022/05/19 05:44:45;;;;;;;3.35;3.05;;;;;;;;;;5067875;28;20520;-78
2022/05/19 05:47:13;;;;;;;3.70;2.80;;;;;;;;;;5051854;28;20119;-79
2022/05/19 05:49:40;;;;;;;5.05;2.70;;;;;;;;;;5057762;28;20041;-79
2022/05/19 05:52:08;;;;;;;4.22;2.80;;;;;;;;;;5039819;28;20136;-79
2022/05/19 05:54:35;;;;;;;2.60;2.50;;;;;;;;;;5056951;28;20040;-79
2022/05/19 05:57:03;;;;;;;2.90;2.70;;;;;;;;;;5058255;28;20057;-79
2022/05/19 05:59:31;;;;;;;6.45;3.05;;;;;;;;;;5054621;28;20083;-77
2022/05/19 06:02:10;;;;;;;4.28;2.78;;;;;;;;;;5040790;28;20051;-78
2022/05/19 06:04:46;;;;;;;3.28;2.53;;;;;;;;;;5058137;28;20052;-78
2022/05/19 06:07:13;;;;;;;2.55;2.35;;;;;;;;;;5031844;28;20102;-79
2022/05/19 06:09:42;;;;;;;4.50;3.03;;;;;;;;;;5055834;28;20048;-79
2022/05/19 06:12:33;;;;;;;4.60;2.85;;;;;;;;;;5061901;28;20492;-80
2022/05/19 06:15:11;;;;;;;2.60;2.40;;;;;;;;;;5069069;28;20086;-78
2022/05/19 06:17:39;;;;;;;7.53;2.78;;;;;;;;;;5064937;28;20110;-78
2022/05/19 06:20:14;;;;;;;5.75;2.65;;;;;;;;;;5066788;28;20111;-78
2022/05/19 06:22:44;;;;;;;;;;;;;;;;;;5055574;28;20044;-79
2022/05/19 06:25:16;;;;;;;7.05;2.90;;;;;;;;;;5063819;23;19925;-79
2022/05/19 06:27:44;;;;;;;2.85;2.65;;;;;;;;;;5032846;28;20044;-79
2022/05/19 06:30:12;;;;;;;4.18;2.63;;;;;;;;;;5046252;28;20042;-79
2022/05/19 06:32:41;;;;;;;4.13;2.50;;;;;;;;;;5042963;28;20494;-79
2022/05/19 06:35:09;;;;;;;2.33;2.20;;;;;;;;;;5041885;28;20053;-78
2022/05/19 06:37:37;;;;;;;2.28;2.03;;;;;;;;;;5037577;28;20049;-78
2022/05/19 06:40:05;;;;;;;3.25;2.40;;;;;;;;;;5048751;28;20045;-79
2022/05/19 06:42:33;;;;;;;5.00;2.70;;;;;;;;;;5046606;28;20060;-78
2022/05/19 06:45:01;;;;;;;2.80;2.60;;;;;;;;;;5042876;28;20041;-78
2022/05/19 06:47:28;;;;;;;5.32;2.42;;;;;;;;;;5033578;28;20160;-79
2022/05/19 06:49:56;;;;;;;2.65;2.45;;;;;;;;;;5021828;28;20097;-79
2022/05/19 06:52:26;;;;;;;2.22;2.03;;;;;;;;;;5024396;28;20052;-79
2022/05/19 06:54:54;;;;;;;1.80;1.70;;;;;;;;;;5037751;28;20059;-78
2022/05/19 06:57:22;;;;;;;5.90;1.70;;;;;;;;;;5035601;28;20034;-78
2022/05/19 06:59:51;;;;;;;3.13;1.52;;;;;;;;;;5038394;28;20210;-78
2022/05/19 07:02:19;;;;;;;2.25;1.75;;;;;;;;;;5040474;28;20132;-78
2022/05/19 07:04:50;;;;;;;1.70;1.60;;;;;;;;;;5042033;28;20053;-78
2022/05/19 07:07:18;;;;;;;2.83;2.03;;;;;;;;;;5052671;28;20056;-78
2022/05/19 07:09:45;;;;;;;4.45;1.95;;;;;;;;;;5046371;28;20041;-79
2022/05/19 07:12:13;;;;;;;3.00;2.05;;;;;;;;;;5041582;28;20106;-78
2022/05/19 07:14:41;;;;;;;4.15;2.08;;;;;;;;;;5018530;28;20124;-77
2022/05/19 07:17:09;;;;;;;5.85;2.20;;;;;;;;;;5032568;28;20056;-79
2022/05/19 07:22:25;;;;;;;3.88;2.15;;;;;;;;;;5047741;28;20044;-79
2022/05/19 07:24:52;;;;;;;2.30;2.10;;;;;;;;;;5034469;28;20044;-80
2022/05/19 07:27:20;;;;;;;2.42;2.17;;;;;;;;;;5038009;28;20061;-80
2022/05/19 07:29:48;;;;;;;6.63;2.50;;;;;;;;;;5045452;28;20079;-81
2022/05/19 07:32:22;;;;;;;6.25;2.10;;;;;;;;;;5033363;28;20501;-80
2022/05/19 07:34:50;;;;;;;2.92;2.00;;;;;;;;;;5044867;28;20516;-81
2022/05/19 07:37:17;;;;;;;2.15;1.95;;;;;;;;;;5050547;28;20077;-81
2022/05/19 07:39:45;;;;;;;4.25;2.03;;;;;;;;;;5044317;28;20042;-80
2022/05/19 07:42:12;;;;;;;5.20;1.98;;;;;;;;;;5045739;28;20508;-81
2022/05/19 07:44:41;;;;;;;2.13;1.92;;;;;;;;;;5011379;28;20054;-79
2022/05/19 07:47:09;;;;;;;3.08;2.25;;;;;;;;;;5042976;28;20493;-80
2022/05/19 07:49:36;;;;;;;7.88;1.90;;;;;;;;;;5044371;28;20072;-80
2022/05/19 07:52:04;;;;;;;2.83;1.90;;;;;;;;;;5051398;28;20520;-80
2022/05/19 07:54:31;;;;;;;2.95;1.98;;;;;;;;;;5052454;28;20069;-80
2022/05/19 07:56:59;;;;;;;3.60;1.95;;;;;;;;;;5038848;28;20120;-80
2022/05/19 07:59:28;;;;;;;3.60;1.77;;;;;;;;;;5043670;28;20131;-79
2022/05/19 08:01:56;;;;;;;2.60;2.00;;;;;;;;;;5041640;28;20404;-79
2022/05/19 08:04:24;;;;;;;4.00;1.92;;;;;;;;;;5036135;28;20048;-79
2022/05/19 08:06:52;;;;;;;3.50;2.22;;;;;;;;;;5046864;28;20078;-80
2022/05/19 08:12:14;;;;;;;3.05;2.10;;;;;;;;;;5034565;28;20041;-80
2022/05/19 08:17:34;;;;;;;3.58;1.90;;;;;;;;;;5036786;28;20119;-79
2022/05/19 08:20:15;;;;;;;2.25;1.70;;;;;;;;;;5040807;28;20060;-80
2022/05/19 08:22:43;;;;;;;3.72;1.73;;;;;;;;;;5048843;28;20037;-79
2022/05/19 08:25:10;;;;;;;2.25;1.73;;;;;;;;;;5039798;28;20064;-79
2022/05/19 08:27:39;;;;;;;2.42;1.80;;;;;;;;;;5045926;28;20072;-79
2022/05/19 08:30:07;;;;;;;2.55;1.50;;;;;;;;;;5044694;28;20051;-80
2022/05/19 08:32:34;;;;;;;4.43;1.65;;;;;;;;;;5036616;28;20045;-79
2022/05/19 08:35:02;;;;;;;2.10;1.90;;;;;;;;;;5048998;28;20144;-80
2022/05/19 08:37:30;;;;;;;2.97;1.80;;;;;;;;;;5055396;28;20037;-81
2022/05/19 08:39:57;;;;;;;5.63;2.15;;;;;;;;;;5043205;28;20071;-77
2022/05/19 08:42:26;;;;;;;1.63;1.50;;;;;;;;;;5042513;28;20102;-78
2022/05/19 08:44:56;;;;;;;3.38;1.80;;;;;;;;;;5041762;28;20437;-79
2022/05/19 08:47:25;;;;;;;8.43;1.83;;;;;;;;;;5023703;28;20051;-78
2022/05/19 08:50:01;;;;;;;4.88;2.13;;;;;;;;;;5043534;28;20079;-78
2022/05/19 08:52:37;;;;;;;4.20;1.65;;;;;;;;;;5039070;28;20045;-79
2022/05/19 08:55:05;;;;;;;2.30;1.60;;;;;;;;;;5036067;28;20614;-80
2022/05/19 08:57:39;;;;;;;3.22;1.92;;;;;;;;;;5038194;28;20485;-79
2022/05/19 09:00:18;;;;;;;4.97;1.95;;;;;;;;;;5039972;28;20045;-79
2022/05/19 09:02:55;;;;;;;2.15;1.67;;;;;;;;;;5032437;28;20064;-79
2022/05/19 09:05:34;;;;;;;2.13;1.67;;;;;;;;;;5046349;28;20048;-80
2022/05/19 09:08:13;;;;;;;3.28;2.05;;;;;;;;;;5043883;28;20111;-79
2022/05/19 09:10:50;;;;;;;2.47;1.80;;;;;;;;;;5042601;28;20090;-80
2022/05/19 09:13:30;;;;;;;2.47;1.70;;;;;;;;;;5044267;28;20044;-80
2022/05/19 09:16:00;;;;;;;2.47;1.67;;;;;;;;;;5025938;28;20056;-80
2022/05/19 09:18:32;;;;;;;3.15;1.95;;;;;;;;;;5041200;28;20041;-80
2022/05/19 09:21:02;;;;;;;2.03;1.77;;;;;;;;;;5047719;28;20622;-80
2022/05/19 09:23:30;;;;;;;2.80;1.70;;;;;;;;;;5039333;28;20042;-79
2022/05/19 09:26:07;;;;;;;1.55;1.45;;;;;;;;;;5041524;28;20086;-80
2022/05/19 09:28:36;;;;;;;1.60;1.50;;;;;;;;;;5042895;28;20055;-80
2022/05/19 09:31:03;;;;;;;3.33;1.55;;;;;;;;;;5046217;28;20033;-80
2022/05/19 09:33:33;;;;;;;3.92;1.80;;;;;;;;;;5044445;28;20412;-80
2022/05/19 09:36:01;;;;;;;2.30;1.70;;;;;;;;;;5054835;28;20043;-80
2022/05/19 09:38:36;;;;;;;2.33;1.65;;;;;;;;;;5047732;28;20048;-79
2022/05/19 09:41:09;;;;;;;2.22;1.70;;;;;;;;;;5046423;28;20073;-80
2022/05/19 09:43:37;;;;;;;3.13;1.63;;;;;;;;;;5044970;28;20044;-79
2022/05/19 09:46:09;;;;;;;1.98;1.50;;;;;;;;;;5045110;28;20044;-80
2022/05/19 09:48:41;;;;;;;3.47;1.50;;;;;;;;;;5023260;28;20220;-80
2022/05/19 09:51:10;;;;;;;1.73;1.50;;;;;;;;;;5048743;28;20033;-81
2022/05/19 09:53:40;;;;;;;1.63;1.48;;;;;;;;;;5039811;28;20052;-80
2022/05/19 09:56:15;;;;;;;2.60;1.48;;;;;;;;;;5043769;28;20470;-80
2022/05/19 09:58:44;;;;;;;3.70;1.85;;;;;;;;;;5055103;28;20091;-80
2022/05/19 10:01:35;;;;;;;2.58;1.60;;;;;;;;;;5053486;28;20041;-80
2022/05/19 10:04:06;;;;;;;1.90;1.77;;;;;;;;;;5046500;28;20045;-81
2022/05/19 10:06:54;;;;;;;1.85;1.48;;;;;;;;;;5032475;28;20123;-80
2022/05/19 10:09:24;;;;;;;2.42;1.80;;;;;;;;;;5036029;28;20062;-80
2022/05/19 10:11:54;;;;;;;3.88;1.50;;;;;;;;;;5043285;28;20041;-80
2022/05/19 10:14:30;;;;;;;1.88;1.63;;;;;;;;;;5047810;28;20071;-80
2022/05/19 10:17:13;;;;;;;1.55;1.45;;;;;;;;;;5047001;28;20068;-78
2022/05/19 10:19:43;;;;;;;1.75;1.50;;;;;;;;;;5046436;28;20040;-79
2022/05/19 10:22:20;;;;;;;1.85;1.67;;;;;;;;;;5043734;28;20489;-79
2022/05/19 10:25:03;;;;;;;1.48;1.38;;;;;;;;;;5042422;28;20048;-79
2022/05/19 10:33:33;;;;;;;2.88;1.50;;;;;;;;;;5036831;28;20125;-81
2022/05/19 10:36:14;;;;;;;3.33;1.30;;;;;;;;;;5052469;28;20052;-81
2022/05/19 10:39:00;;;;;;;1.52;1.27;;;;;;;;;;5051623;28;20041;-80
2022/05/19 10:41:46;;;;;;;1.55;1.45;;;;;;;;;;5043052;28;20043;-80
2022/05/19 10:44:17;;;;;;;1.40;1.30;;;;;;;;;;5054748;28;20053;-80
2022/05/19 10:46:48;;;;;;;6.13;1.60;;;;;;;;;;5037525;28;20049;-81
2022/05/19 10:49:28;;;;;;;1.70;1.60;;;;;;;;;;5054982;28;20065;-82
2022/05/19 10:52:09;;;;;;;1.53;1.43;;;;;;;;;;5043214;28;20060;-81
2022/05/19 10:54:49;;;;;;;2.97;1.60;;;;;;;;;;5049004;28;20044;-82
2022/05/19 10:57:28;;;;;;;1.67;1.38;;;;;;;;;;5042112;28;20048;-80
2022/05/19 11:00:03;;;;;;;2.35;1.30;;;;;;;;;;5051145;28;20040;-79
2022/05/19 11:02:43;;;;;;;3.15;1.60;;;;;;;;;;5045064;28;20080;-80
2022/05/19 11:05:17;;;;;;;3.75;1.52;;;;;;;;;;5046365;28;20060;-80
2022/05/19 11:07:49;;;;;;;1.67;1.58;;;;;;;;;;5053916;28;20267;-80
2022/05/19 11:10:23;;;;;;;5.25;1.40;;;;;;;;;;5051629;28;20060;-79
2022/05/19 11:12:54;;;;;;;1.90;1.80;;;;;;;;;;5030248;28;20136;-80
2022/05/19 11:15:38;;;;;;;4.47;1.40;;;;;;;;;;5014985;28;20042;-80
2022/05/19 11:18:07;;;;;;;4.05;1.33;;;;;;;;;;5019307;28;20045;-79
2022/05/19 11:21:03;;;;;;;1.40;1.30;;;;;;;;;;5039678;28;20691;-80
2022/05/19 11:23:51;;;;;;;2.92;1.30;;;;;;;;;;5008863;28;20521;-81
2022/05/19 11:26:26;;;;;;;2.28;1.23;;;;;;;;;;5024640;28;20041;-81
2022/05/19 11:29:02;;;;;;;1.25;1.15;;;;;;;;;;5013729;28;20068;-81
2022/05/19 11:31:49;;;;;;;1.17;1.17;;;;;;;;;;5045542;28;20029;-81
2022/05/19 11:34:22;;;;;;;2.88;1.35;;;;;;;;;;5046610;28;20060;-80
2022/05/19 11:36:54;;;;;;;3.72;1.10;;;;;;;;;;5047849;28;20134;-80
2022/05/19 11:39:27;;;;;;;0.95;0.90;;;;;;;;;;5026590;28;20049;-81
2022/05/19 11:42:01;;;;;;;1.77;1.30;;;;;;;;;;5046205;28;20059;-80
2022/05/19 11:44:30;;;;;;;1.02;1.02;;;;;;;;;;5044713;28;20045;-80
2022/05/19 11:47:00;;;;;;;2.30;1.20;;;;;;;;;;5042192;28;20042;-81
2022/05/19 11:55:33;;;;;;;2.75;1.50;;;;;;;;;;5039045;28;19963;-81
2022/05/19 11:58:04;;;;;;;1.83;1.25;;;;;;;;;;5040960;28;20057;-81
2022/05/19 12:00:55;;;;;;;1.08;1.02;;;;;;;;;;5047505;28;20045;-82
2022/05/19 12:03:26;;;;;;;1.25;1.15;;;;;;;;;;5050761;28;20156;-81
2022/05/19 12:05:59;;;;;;;4.10;1.35;;;;;;;;;;5042039;28;20050;-81
2022/05/19 12:08:42;;;;;;;1.83;1.30;;;;;;;;;;5027090;28;20348;-82
2022/05/19 12:11:18;;;;;;;3.05;1.13;;;;;;;;;;5043059;28;20092;-82
2022/05/19 12:13:47;;;;;;;0.98;0.98;;;;;;;;;;5040140;28;20045;-82
2022/05/19 12:16:17;;;;;;;2.63;1.02;;;;;;;;;;5042547;28;20091;-82
2022/05/19 12:19:03;;;;;;;1.20;1.10;;;;;;;;;;5055978;28;20093;-82
2022/05/19 12:21:38;;;;;;;1.73;1.13;;;;;;;;;;5043438;28;20041;-82
2022/05/19 12:24:08;;;;;;;2.08;1.08;;;;;;;;;;5065163;23;20057;-79
2022/05/19 12:26:51;;;;;;;2.58;1.00;;;;;;;;;;5057520;28;20041;-78
2022/05/19 12:29:33;;;;;;;2.50;1.10;;;;;;;;;;5053316;28;20043;-76
2022/05/19 12:32:21;;;;;;;2.28;1.30;;;;;;;;;;5056734;28;20060;-77
2022/05/19 12:34:56;;;;;;;1.30;1.10;;;;;;;;;;5061947;28;20150;-79
2022/05/19 12:37:27;;;;;;;1.10;1.05;;;;;;;;;;5062611;28;20048;-77
2022/05/19 12:40:12;;;;;;;1.42;1.30;;;;;;;;;;5058070;28;20049;-78
2022/05/19 12:42:40;;;;;;;1.85;1.30;;;;;;;;;;5047671;28;20071;-79
2022/05/19 12:45:27;;;;;;;;;;;;;;;;;;;;;
2022/05/19 12:49:38;;;;;;;3.30;1.00;;;;;;;;;;5021763;28;19976;-78
2022/05/19 12:52:14;;;;;;;1.58;1.30;;;;;;;;;;5064754;28;20511;-76
2022/05/19 12:54:52;;;;;;;2.75;1.10;;;;;;;;;;5064669;28;20072;-78
2022/05/19 12:57:25;;;;;;;2.22;1.10;;;;;;;;;;5054472;28;20071;-78
2022/05/19 13:00:19;;;;;;;5.03;1.20;;;;;;;;;;5042551;28;20236;-79
2022/05/19 13:02:55;;;;;;;1.23;1.10;;;;;;;;;;5062948;28;20059;-78
2022/05/19 13:05:30;;;;;;;1.63;0.98;;;;;;;;;;5051781;28;20045;-78
2022/05/19 13:08:02;;;;;;;2.53;1.20;;;;;;;;;;5070534;28;20048;-78
2022/05/19 13:10:38;;;;;;;2.42;1.02;;;;;;;;;;5050171;28;20060;-78
2022/05/19 13:13:27;;;;;;;1.15;1.00;;;;;;;;;;5063465;28;20041;-77
2022/05/19 13:15:57;;;;;;;1.80;0.90;;;;;;;;;;5070043;28;20041;-78
2022/05/19 13:18:29;;;;;;;1.13;1.00;;;;;;;;;;5070461;28;20048;-77
2022/05/19 13:21:11;;;;;;;2.35;1.00;;;;;;;;;;5064428;28;20095;-78
2022/05/19 13:23:40;;;;;;;4.43;0.98;;;;;;;;;;5050089;28;20102;-78
2022/05/19 13:26:19;;;;;;;2.33;1.10;;;;;;;;;;5036288;28;20494;-78
2022/05/19 13:32:00;;;;;;;1.30;1.20;;;;;;;;;;5056222;28;20084;-79
2022/05/19 13:34:40;;;;;;;1.05;0.95;;;;;;;;;;5055017;28;20044;-77
2022/05/19 13:37:09;;;;;;;0.80;0.80;;;;;;;;;;5055304;28;20798;-78
2022/05/19 13:39:37;;;;;;;1.58;0.88;;;;;;;;;;5057537;28;20276;-78
2022/05/19 13:42:07;;;;;;;6.00;1.02;;;;;;;;;;5057010;28;20049;-78
2022/05/19 13:44:42;;;;;;;3.00;1.02;;;;;;;;;;5060085;28;20044;-77
2022/05/19 13:47:12;;;;;;;2.35;1.17;;;;;;;;;;5050107;28;20319;-76
2022/05/19 13:49:39;;;;;;;1.27;0.82;;;;;;;;;;5062680;28;20029;-77
2022/05/19 13:52:12;;;;;;;4.28;1.00;;;;;;;;;;5061620;28;20127;-76
2022/05/19 13:54:41;;;;;;;2.22;1.00;;;;;;;;;;5053129;28;20099;-78
2022/05/19 13:57:13;;;;;;;1.03;1.00;;;;;;;;;;5056633;28;20044;-77
2022/05/19 13:59:41;;;;;;;3.85;1.05;;;;;;;;;;5065649;28;20106;-77
2022/05/19 14:02:15;;;;;;;3.90;1.10;;;;;;;;;;5065459;28;20037;-77
2022/05/19 14:04:44;;;;;;;2.10;1.20;;;;;;;;;;5069301;28;20097;-78
2022/05/19 14:07:13;;;;;;;2.30;0.90;;;;;;;;;;5059447;28;20063;-77
2022/05/19 14:09:53;;;;;;;1.42;1.30;;;;;;;;;;5047490;28;20052;-77
2022/05/19 14:12:37;;;;;;;3.47;1.20;;;;;;;;;;5056042;28;20429;-77
2022/05/19 14:15:08;;;;;;;2.42;1.25;;;;;;;;;;5041726;28;20468;-77
2022/05/19 14:17:39;;;;;;;1.50;1.00;;;;;;;;;;5064324;28;20075;-78
2022/05/19 14:20:09;;;;;;;1.10;1.00;;;;;;;;;;5061634;28;20123;-77
2022/05/19 14:22:37;;;;;;;1.88;1.08;;;;;;;;;;5055993;28;20049;-78
2022/05/19 14:25:09;;;;;;;9.20;1.30;;;;;;;;;;5060632;28;20114;-76
2022/05/19 14:27:45;;;;;;;1.08;0.80;;;;;;;;;;5052737;28;20049;-78
2022/05/19 14:30:17;;;;;;;3.85;1.20;;;;;;;;;;5060595;28;20052;-78
2022/05/19 14:32:50;;;;;;;1.15;1.02;;;;;;;;;;5067560;28;20036;-77
2022/05/19 14:35:18;;;;;;;3.13;1.20;;;;;;;;;;5056384;28;20522;-78
2022/05/19 14:37:49;;;;;;;1.70;0.90;;;;;;;;;;5067354;28;20143;-78
2022/05/19 14:47:54;;;;;;;1.40;1.00;;;;;;;;;;5064272;28;19920;-77
2022/05/19 14:50:29;;;;;;;0.80;0.80;;;;;;;;;;5061570;28;20049;-78
2022/05/19 14:53:08;;;;;;;1.05;0.90;;;;;;;;;;5051350;28;20817;-77
2022/05/19 14:55:38;;;;;;;2.65;0.80;;;;;;;;;;5056866;28;20048;-77
2022/05/19 14:58:09;;;;;;;2.03;1.30;;;;;;;;;;5063954;28;20048;-77
2022/05/19 15:00:39;;;;;;;2.50;1.20;;;;;;;;;;5052250;28;20128;-77
2022/05/19 15:03:13;;;;;;;2.83;0.90;;;;;;;;;;5057563;28;20032;-76
2022/05/19 15:05:42;;;;;;;1.02;1.02;;;;;;;;;;5078561;28;20045;-77
2022/05/19 15:08:11;;;;;;;2.50;0.90;;;;;;;;;;5054281;28;20120;-76
2022/05/19 15:10:38;;;;;;;0.90;0.90;;;;;;;;;;5042754;28;20486;-81
2022/05/19 15:13:34;;;;;;;1.00;0.90;;;;;;;;;;5056495;28;20044;-79
2022/05/19 15:16:02;;;;;;;3.05;1.70;;;;;;;;;;5071775;28;20153;-79
2022/05/19 15:18:30;;;;;;;4.00;0.95;;;;;;;;;;5056954;28;20057;-79
2022/05/19 15:20:58;;;;;;;1.45;1.20;;;;;;;;;;5056371;28;20052;-78
2022/05/19 15:23:27;;;;;;;1.63;1.00;;;;;;;;;;5041392;28;20085;-79
2022/05/19 15:25:55;;;;;;;1.17;1.08;;;;;;;;;;5058744;28;20106;-78
2022/05/19 15:28:23;;;;;;;4.18;1.50;;;;;;;;;;5057140;28;20062;-79
2022/05/19 15:30:50;;;;;;;2.35;1.30;;;;;;;;;;5058213;28;20136;-79
2022/05/19 15:33:18;;;;;;;3.40;1.17;;;;;;;;;;5064073;28;20086;-78
2022/05/19 15:35:45;;;;;;;2.47;1.40;;;;;;;;;;5058488;28;20896;-78
2022/05/19 15:38:13;;;;;;;1.80;1.20;;;;;;;;;;5057993;28;20056;-78
2022/05/19 15:40:41;;;;;;;1.13;1.02;;;;;;;;;;5052173;28;20036;-79
2022/05/19 15:43:08;;;;;;;3.22;1.10;;;;;;;;;;5051216;28;20040;-77
2022/05/19 15:45:38;;;;;;;2.45;1.50;;;;;;;;;;5046078;28;20697;-78